• Join FlightAware (Why Join?)
  • Login
  • US Flag 
Trick or treat! (Boo!!) 
09:18PM EDT


 

Airport Tracker/Info


-or-


 

Live Flight TrackerFlight Track Log ✈ DAL370 ✈ 22-Sep-2013 ✈ MNMG / MGA - KATL

Flight Track Log - Related Links

Times and Time Zones

All times are in EDT time to prevent confusion due to time zone crossing. See the DAL370 flight status page for this flight to view local times or setup timezone preferences in your user account.

Time Position Orientation Groundspeed Altitude Reporting Facility
EDT Latitude Longitude Course Direction KTS MPH feet Rate Location/Type
12:57PM 12.2593 -86.1764 356° North  Level FlightAware Approximate
12:58PM 12.3772 -86.1845 356° North  Level FlightAware Approximate
12:59PM 12.4950 -86.1927 356° North  Level FlightAware Approximate
01:00PM 12.6129 -86.2010 356° North  Level FlightAware Approximate
01:01PM 12.7307 -86.2092 356° North  Level FlightAware Approximate
01:02PM 12.8485 -86.2174 356° North  Level FlightAware Approximate
01:03PM 12.9664 -86.2256 356° North  Level FlightAware Approximate
01:04PM 13.0842 -86.2339 356° North  Level FlightAware Approximate
01:05PM 13.2021 -86.2421 356° North  Level FlightAware Approximate
01:06PM 13.3199 -86.2504 356° North  Level FlightAware Approximate
01:07PM 13.4377 -86.2586 356° North  Level FlightAware Approximate
01:08PM 13.5556 -86.2669 356° North  Level FlightAware Approximate
01:09PM 13.6734 -86.2752 356° North  Level FlightAware Approximate
01:10PM 13.7912 -86.2834 356° North  Level FlightAware Approximate
01:11PM 13.9091 -86.2917 356° North  Level FlightAware Approximate
01:12PM 14.0269 -86.3000 356° North  Level FlightAware Approximate
01:13PM 14.1447 -86.3083 356° North  Level FlightAware Approximate
01:14PM 14.2626 -86.3167 356° North  Level FlightAware Approximate
01:15PM 14.3804 -86.3250 356° North  Level FlightAware Approximate
01:16PM 14.4982 -86.3333 356° North  Level FlightAware Approximate
01:17PM 14.6160 -86.3417 356° North  Level FlightAware Approximate
01:18PM 14.7411 -86.3507 355° North  Level FlightAware Approximate
01:19PM 14.8587 -86.3616 355° North  Level FlightAware Approximate
01:20PM 14.9763 -86.3726 355° North  Level FlightAware Approximate
01:21PM 15.0940 -86.3835 355° North  Level FlightAware Approximate
01:22PM 15.2116 -86.3944 355° North  Level FlightAware Approximate
01:23PM 15.3293 -86.4054 355° North  Level FlightAware Approximate
01:24PM 15.4469 -86.4164 355° North  Level FlightAware Approximate
01:25PM 15.5646 -86.4256 356° North  Level FlightAware Approximate
01:26PM 15.6824 -86.4348 356° North  Level FlightAware Approximate
01:27PM 15.8002 -86.4439 356° North  Level FlightAware Approximate
01:28PM 15.9180 -86.4531 356° North  Level FlightAware Approximate
01:29PM 16.0358 -86.4623 356° North  Level FlightAware Approximate
01:30PM 16.1535 -86.4715 356° North  Level FlightAware Approximate
01:31PM 16.2713 -86.4808 356° North  Level FlightAware Approximate
01:32PM 16.3891 -86.4900 356° North  Level FlightAware Approximate
01:33PM 16.5063 -86.4992 356° North  Level FlightAware Approximate
01:34PM 16.6234 -86.5084 356° North  Level FlightAware Approximate
01:35PM 16.7406 -86.5176 356° North  Level FlightAware Approximate
01:36PM 16.8577 -86.5268 356° North  Level FlightAware Approximate
01:37PM 16.9749 -86.5361 356° North  Level FlightAware Approximate
01:38PM 17.0920 -86.5453 356° North  Level FlightAware Approximate
01:39PM 17.2092 -86.5546 356° North  Level FlightAware Approximate
01:40PM 17.3263 -86.5639 356° North  Level FlightAware Approximate
01:41PM 17.4435 -86.5732 356° North  Level FlightAware Approximate
01:42PM 17.5606 -86.5825 356° North  Level FlightAware Approximate
01:43PM 17.6778 -86.5918 356° North  Level FlightAware Approximate
01:44PM 17.7949 -86.6011 356° North  Level FlightAware Approximate
01:45PM 17.9121 -86.6105 356° North  Level FlightAware Approximate
01:46PM 18.0292 -86.6198 356° North  Level FlightAware Approximate
01:47PM 18.1464 -86.6292 356° North  Level FlightAware Approximate
01:48PM 18.2635 -86.6386 356° North  Level FlightAware Approximate
01:49PM 18.3807 -86.6479 356° North  Level FlightAware Approximate
01:50PM 18.4978 -86.6573 356° North  Level FlightAware Approximate
01:51PM 18.6150 -86.6668 356° North  Level FlightAware Approximate
01:52PM 18.7321 -86.6762 356° North  Level FlightAware Approximate
01:53PM 18.8493 -86.6856 356° North  Level FlightAware Approximate
01:54PM 18.9664 -86.6951 356° North  Level FlightAware Approximate
01:55PM 19.0836 -86.7046 356° North  Level FlightAware Approximate
01:56PM 19.2007 -86.7140 356° North  Level FlightAware Approximate
01:57PM 19.3179 -86.7222 356° North  Level FlightAware Approximate
01:58PM 19.4352 -86.7298 356° North  Level FlightAware Approximate
01:59PM 19.5525 -86.7374 356° North  Level FlightAware Approximate
02:00PM 19.6698 -86.7451 356° North  Level FlightAware Approximate
02:01PM 19.7870 -86.7527 356° North  Level FlightAware Approximate
02:02PM 19.9043 -86.7604 356° North  Level FlightAware Approximate
02:03PM 20.0215 -86.7684 356° North  Level FlightAware Approximate
02:04PM 20.1387 -86.7780 356° North  Level FlightAware Approximate
02:05PM 20.2558 -86.7875 356° North  Level FlightAware Approximate
02:06PM 20.3729 -86.7971 356° North  Level FlightAware Approximate
02:07PM 20.4901 -86.8067 356° North  Level FlightAware Approximate
02:08PM 20.6072 -86.8163 356° North  Level FlightAware Approximate
02:09PM 20.7227 -86.7863 14° North  Level FlightAware Approximate
02:10PM 20.8382 -86.7563 14° North  Level FlightAware Approximate
02:11PM 20.9536 -86.7263 14° North  Level FlightAware Approximate
02:12PM 21.0691 -86.6962 14° North  Level FlightAware Approximate
02:13PM 21.1845 -86.6660 14° North  Level FlightAware Approximate
02:14PM 21.3000 -86.6358 14° North  Level FlightAware Approximate
02:15PM 21.4154 -86.6055 14° North  Level FlightAware Approximate
02:16PM 21.5308 -86.5752 14° North  Level FlightAware Approximate
02:17PM 21.6463 -86.5449 14° North  Level FlightAware Approximate
02:18PM 21.7617 -86.5145 14° North  Level FlightAware Approximate
02:19PM 21.8851 -86.4894 North  Level FlightAware Approximate
02:20PM 22.0027 -86.4711 North  Level FlightAware Approximate
02:21PM 22.1203 -86.4527 North  Level FlightAware Approximate
02:22PM 22.2379 -86.4344 North  Level FlightAware Approximate
02:23PM 22.3555 -86.4160 North  Level FlightAware Approximate
02:24PM 22.4731 -86.3976 North  Level FlightAware Approximate
02:25PM 22.5907 -86.3791 North  Level FlightAware Approximate
02:26PM 22.7083 -86.3606 North  Level FlightAware Approximate
02:27PM 22.8259 -86.3421 North  Level FlightAware Approximate
02:28PM 22.9435 -86.3235 North  Level FlightAware Approximate
02:29PM 23.0611 -86.3049 North  Level FlightAware Approximate
02:30PM 23.1786 -86.2863 North  Level FlightAware Approximate
02:31PM 23.2962 -86.2677 North  Level FlightAware Approximate
02:32PM 23.4138 -86.2490 North  Level FlightAware Approximate
02:33PM 23.5314 -86.2303 North  Level FlightAware Approximate
02:34PM 23.6490 -86.2115 North  Level FlightAware Approximate
02:35PM 23.7665 -86.1927 North  Level FlightAware Approximate
02:35PM 24.3369 -85.9781 30° Northeast 477 549 34,900  Level Houston Center
02:36PM 23.8841 -86.1739 North  Level FlightAware Approximate
02:36PM 24.4511 -85.9136 27° Northeast 468 539 35,000  Level Houston Center
02:37PM 24.0017 -86.1551 North  Level FlightAware Approximate
02:37PM 24.5725 -85.8672 19° North 468 539 35,000  Level Houston Center
02:38PM 24.1095 -86.1044 29° Northeast  Level FlightAware Approximate
02:38PM 24.7192 -85.8142 18° North 470 541 34,900  Level Houston Center
02:39PM 24.2138 -86.0418 29° Northeast  Level FlightAware Approximate
02:39PM 24.8453 -85.7689 18° North 467 537 35,000  Level Houston Center
02:40PM 24.3176 -85.9785 30° Northeast  Level FlightAware Approximate
02:40PM 24.9669 -85.7239 19° North 467 537 34,900  Level Houston Center
02:41PM 25.0931 -85.6786 18° North 469 540 34,900  Level Houston Center
02:42PM 25.2131 -85.6339 19° North 467 537 34,900  Level Houston Center
02:43PM 25.3353 -85.5881 19° North 464 534 34,900  Level Houston Center
02:44PM 25.4753 -85.5072 28° Northeast 472 543 35,000  Climbing Houston Center
02:45PM 25.5925 -85.4353 29° Northeast 477 549 35,000  Level Houston Center
02:46PM 25.7092 -85.3622 29° Northeast 479 551 35,000  Level Houston Center
02:47PM 25.8331 -85.2844 29° Northeast 476 548 35,000 -60 Level Houston Center
02:48PM 25.9500 -85.2150 28° Northeast 475 547 34,900 -60 Descending Houston Center
02:49PM 26.0681 -85.1489 27° Northeast 475 547 34,900  Level Houston Center
02:50PM 26.1853 -85.0825 27° Northeast 473 544 35,000  Climbing Houston Center
02:51PM 26.3019 -85.0153 27° Northeast 472 543 34,900 -60 Descending Houston Center
02:52PM 26.4183 -84.9467 28° Northeast 472 543 34,900  Level Houston Center
02:53PM 26.5583 -84.8694 26° Northeast 469 540 35,000  Climbing Houston Center
02:55PM 26.8011 -84.7553 23° Northeast 472 543 35,000 -60 Level Houston Center
02:56PM 26.9278 -84.7236 13° North 468 539 34,900  Descending Houston Center
02:57PM 27.0547 -84.7139 North 460 529 35,000  Climbing Houston Center
02:58PM 27.1844 -84.7017 North 461 531 34,900  Descending Houston Center
02:59PM 27.3408 -84.6861 North 456 525 35,000  Climbing Miami Center
03:00PM 27.4647 -84.6733 North 462 532 35,000 -60 Level Miami Center
03:02PM 27.6789 -84.6569 North 468 539 34,900 -60 Descending Jacksonville Center
03:03PM 27.8083 -84.6428 North 468 539 34,900  Level Jacksonville Center
03:04PM 27.9169 -84.6444 359° North 457 526 35,000  Climbing Jacksonville Center
03:05PM 28.0397 -84.6536 356° North 451 519 35,000 -60 Level Jacksonville Center
03:06PM 28.1856 -84.6681 355° North 462 532 34,900 -60 Descending Jacksonville Center
03:07PM 28.3128 -84.6844 354° North 467 537 34,900  Level Jacksonville Center
03:08PM 28.4378 -84.7008 353° North 461 531 35,000  Climbing Jacksonville Center
03:09PM 28.5647 -84.7125 355° North 456 525 35,000 -60 Level Jacksonville Center
03:10PM 28.6919 -84.7219 356° North 456 525 34,900 -60 Descending Jacksonville Center
03:11PM 28.8192 -84.7361 354° North 456 525 34,900  Level Jacksonville Center
03:12PM 28.9442 -84.7550 352° North 456 525 35,000  Climbing Jacksonville Center
03:13PM 29.0753 -84.7647 356° North 462 532 35,000  Level Jacksonville Center
03:14PM 29.2044 -84.7814 354° North 462 532 35,000  Level Jacksonville Center
03:15PM 29.3339 -84.7933 355° North 462 532 35,000 -60 Level Jacksonville Center
03:16PM 29.4650 -84.8081 354° North 462 532 34,900 -60 Descending Jacksonville Center
03:17PM 29.5942 -84.8225 354° North 462 532 34,900 -180 Level Jacksonville Center
03:18PM 29.7256 -84.8344 355° North 462 532 34,600 -660 Descending Jacksonville Center
03:19PM 29.8528 -84.8492 354° North 462 532 33,600 -1,020 Descending Jacksonville Center
03:20PM 29.9800 -84.8611 355° North 462 532 32,600 -1,020 Descending Jacksonville Center
03:21PM 30.1111 -84.8758 354° North 462 532 31,600 -1,020 Descending Jacksonville Center
03:22PM 30.2447 -84.8906 355° North 467 537 30,600 -900 Descending Jacksonville Center
03:23PM 30.3781 -84.9056 354° North 467 537 29,900 -300 Descending Jacksonville Center
03:24PM 30.4989 -84.9178 355° North 479 551 30,000  Climbing Jacksonville Center
03:25PM 30.6322 -84.9325 355° North 479 551 30,000 -60 Level Jacksonville Center
03:26PM 30.7656 -84.9453 355° North 479 551 29,900  Descending Jacksonville Center
03:28PM 31.0731 -84.9819 354° North 496 571 30,000  Climbing Atlanta Center
03:29PM 31.2086 -84.9978 354° North 501 577 30,000  Level Atlanta Center
03:30PM 31.3419 -85.0139 354° North 488 562 30,000  Level Atlanta Center
03:31PM 31.4797 -85.0275 355° North 488 562 30,000  Level Atlanta Center
03:32PM 31.6111 -85.0436 354° North 482 555 30,000 -420 Level Atlanta Center
03:33PM 31.7467 -85.0425 360° North 482 555 29,200 -900 Descending Atlanta Center
03:34PM 31.8803 -85.0392 North 482 555 28,300 -720 Descending Atlanta Center
03:35PM 32.0203 -85.0383 360° North 466 536 27,800 -660 Descending Atlanta Center
03:36PM 32.1433 -85.0397 359° North 450 518 27,000 -420 Descending Atlanta Center
03:37PM 32.2394 -85.0383 North 438 504 27,000 1,500 Level Atlanta Center
03:38PM 32.3606 -85.0347 North 416 479 30,000 -1,380 Climbing Atlanta Center
03:39PM 32.4836 -85.0336 360° North 416 479 24,300 -3,420 Descending Atlanta Center
03:40PM 32.5983 -85.0325 360° North 416 479 23,200 -1,560 Descending Atlanta Center
03:41PM 32.7133 -85.0314 360° North 416 479 21,200 -2,280 Descending Atlanta Center
03:42PM 32.8239 -85.0400 356° North 411 473 18,700 -2,580 Descending Atlanta Center
03:43PM 32.9322 -85.0361 North 392 451 16,100 -2,520 Descending Atlanta Center
03:44PM 33.0367 -85.0375 359° North 374 430 13,700 -1,800 Descending Atlanta Center
03:45PM 33.1306 -85.0361 North 348 400 12,500 -1,200 Descending Atlanta Center
03:46PM 33.2081 -84.9997 21° North 280 322 11,300 -1,500 Descending Atlanta Center
03:47PM 33.2692 -84.9233 46° Northeast 280 322 9,600 -1,980 Descending Atlanta Center
03:48PM 33.3219 -84.8492 50° Northeast 285 328 7,400 -1,980 Descending Atlanta Center
03:49PM 33.3889 -84.8050 29° Northeast 280 322 5,700 -1,560 Descending Atlanta Center
03:50PM 33.4642 -84.8133 355° North 263 303 4,300 -1,440 Descending Atlanta Center
03:52PM 33.5412 -84.6536 66° East  Level FlightAware Approximate